Time;durP1;ratioP1;P1;durP2;ratioP2;P2;SDS_P1;SDS_P2;PMS_P1;PMS_P2;Temp;Humidity;BMP_temperature;BMP_pressure;BME280_temperature;BME280_humidity;BME280_pressure;Samples;Min_cycle;Max_cycle;Signal;HPM_P1;HPM_P2
2021/10/15 00:01:39;;;;;;;22.70;7.32;;;;;;;13.66;98.76;101765.44;5012926;28;20109;-73
2021/10/15 00:04:04;;;;;;;20.90;7.30;;;;;;;13.66;98.96;101760.13;5012864;28;20450;-73
2021/10/15 00:06:30;;;;;;;17.02;7.07;;;;;;;13.72;98.86;101759.34;5013388;28;20064;-73
2021/10/15 00:08:55;;;;;;;23.27;6.25;;;;;;;13.63;99.17;101754.78;5013914;28;20025;-73
2021/10/15 00:11:20;;;;;;;16.95;6.68;;;;;;;13.62;99.18;101747.72;5011555;28;20385;-73
2021/10/15 00:13:46;;;;;;;15.45;7.07;;;;;;;13.65;99.09;101747.78;5013616;28;20060;-73
2021/10/15 00:16:11;;;;;;;18.50;6.75;;;;;;;13.69;98.79;101739.03;5012283;28;20053;-73
2021/10/15 00:18:36;;;;;;;17.83;6.22;;;;;;;13.64;99.10;101745.97;5011680;28;20049;-72
2021/10/15 00:21:02;;;;;;;13.90;6.25;;;;;;;13.62;99.25;101753.00;5013662;28;20087;-72
2021/10/15 00:23:27;;;;;;;21.88;7.05;;;;;;;13.67;99.27;101751.31;5012641;28;20176;-73
2021/10/15 00:25:53;;;;;;;14.77;6.90;;;;;;;13.70;98.91;101740.81;5012402;28;20694;-72
2021/10/15 00:28:18;;;;;;;16.95;7.20;;;;;;;13.67;99.21;101740.75;5013647;28;20033;-73
2021/10/15 00:30:43;;;;;;;19.00;6.72;;;;;;;13.66;99.58;101733.69;5010901;28;20033;-73
2021/10/15 00:33:09;;;;;;;20.67;7.57;;;;;;;13.66;99.19;101729.28;5011118;28;20029;-73
2021/10/15 00:35:34;;;;;;;20.15;7.32;;;;;;;13.66;99.32;101723.13;5009125;28;20034;-73
2021/10/15 00:37:59;;;;;;;17.58;6.78;;;;;;;13.64;99.42;101724.81;5006407;28;20091;-72
2021/10/15 00:40:25;;;;;;;13.45;6.60;;;;;;;13.67;99.42;101716.94;5011612;28;20112;-73
2021/10/15 00:42:50;;;;;;;12.38;6.90;;;;;;;13.65;99.31;101721.31;5010400;28;20389;-73
2021/10/15 00:45:15;;;;;;;28.80;8.00;;;;;;;13.58;99.58;101714.13;5012206;28;20026;-72
2021/10/15 00:47:41;;;;;;;13.85;6.28;;;;;;;13.62;99.87;101715.97;5011212;28;20055;-73
2021/10/15 00:50:07;;;;;;;16.10;6.95;;;;;;;13.69;99.45;101703.72;5011427;28;20029;-73
2021/10/15 00:52:33;;;;;;;12.98;5.72;;;;;;;13.66;99.37;101707.25;5011500;28;20025;-72
2021/10/15 00:54:58;;;;;;;18.48;6.70;;;;;;;13.69;99.56;101707.28;5011128;28;20025;-72
2021/10/15 00:57:23;;;;;;;23.77;6.90;;;;;;;13.58;99.92;101704.44;5011717;28;20029;-72
2021/10/15 00:59:50;;;;;;;16.88;6.82;;;;;;;13.61;99.89;101698.34;5013528;28;20022;-73
2021/10/15 01:02:15;;;;;;;17.92;6.38;;;;;;;13.58;100.00;101699.16;5013685;28;20037;-73
2021/10/15 01:04:41;;;;;;;19.45;7.03;;;;;;;13.53;100.00;101684.97;5015211;28;20025;-73
2021/10/15 01:07:07;;;;;;;19.10;6.43;;;;;;;13.63;100.00;101691.28;5012111;28;20025;-73
2021/10/15 01:09:32;;;;;;;18.70;6.18;;;;;;;13.62;100.00;101689.53;5010416;28;20030;-72
2021/10/15 01:12:02;;;;;;;23.65;6.88;;;;;;;13.62;99.93;101673.69;5015393;28;20112;-72
2021/10/15 01:14:28;;;;;;;21.50;6.65;;;;;;;13.64;99.92;101677.22;5016113;28;20032;-72
2021/10/15 01:16:53;;;;;;;17.88;6.90;;;;;;;13.56;100.00;101662.97;5015984;28;20037;-72
2021/10/15 01:19:19;;;;;;;18.63;7.10;;;;;;;13.58;100.00;101666.53;5014899;28;20029;-72
2021/10/15 01:21:44;;;;;;;15.65;6.45;;;;;;;13.58;100.00;101671.81;5017017;28;20033;-72
2021/10/15 01:24:10;;;;;;;19.23;6.88;;;;;;;13.56;100.00;101668.25;5013856;28;20383;-72
2021/10/15 01:26:35;;;;;;;16.02;6.80;;;;;;;13.55;100.00;101664.75;5015921;28;20113;-72
2021/10/15 01:29:00;;;;;;;20.90;6.43;;;;;;;13.52;100.00;101658.50;5014549;28;20105;-72
2021/10/15 01:31:27;;;;;;;26.00;8.18;;;;;;;13.53;100.00;101660.28;5016908;28;20128;-73
2021/10/15 01:33:57;;;;;;;19.38;7.68;;;;;;;13.53;100.00;101657.63;5014088;28;20481;-72
2021/10/15 01:36:24;;;;;;;13.93;6.88;;;;;;;13.56;100.00;101657.69;5012677;28;20034;-72
2021/10/15 01:38:49;;;;;;;15.20;7.82;;;;;;;13.53;100.00;101657.63;5015455;28;20026;-72
2021/10/15 01:41:15;;;;;;;17.38;7.88;;;;;;;13.47;100.00;101654.03;5017013;28;20336;-73
2021/10/15 01:43:40;;;;;;;16.83;7.93;;;;;;;13.48;100.00;101653.16;5015637;28;20040;-72
2021/10/15 01:46:05;;;;;;;17.83;7.82;;;;;;;13.44;100.00;101648.69;5015928;28;20038;-73
2021/10/15 01:48:31;;;;;;;18.60;8.32;;;;;;;13.41;100.00;101643.31;5014087;28;20030;-72
2021/10/15 01:50:56;;;;;;;18.85;7.25;;;;;;;13.48;100.00;101642.59;5015080;28;20120;-73
2021/10/15 01:53:21;;;;;;;25.60;7.82;;;;;;;13.47;100.00;101637.28;5014417;28;20045;-72
2021/10/15 01:55:47;;;;;;;17.15;7.07;;;;;;;13.45;100.00;101645.16;5015566;28;20069;-72
2021/10/15 01:58:13;;;;;;;19.67;7.97;;;;;;;13.44;100.00;101638.13;5015950;28;20065;-72
2021/10/15 02:00:39;;;;;;;17.90;7.72;;;;;;;13.41;100.00;101632.75;5015988;28;20033;-73
2021/10/15 02:03:05;;;;;;;15.52;6.90;;;;;;;13.42;100.00;101631.88;5014096;28;20525;-73
2021/10/15 02:05:30;;;;;;;16.60;6.50;;;;;;;13.43;100.00;101635.41;5013755;28;20037;-73
2021/10/15 02:07:56;;;;;;;11.75;4.90;;;;;;;13.46;100.00;101617.84;5014224;28;20401;-73
2021/10/15 02:10:22;;;;;;;11.60;4.03;;;;;;;13.56;99.97;101620.66;5014794;28;20081;-72
2021/10/15 02:12:49;;;;;;;13.90;3.38;;;;;;;13.67;97.68;101619.06;5014019;28;20030;-72
2021/10/15 02:15:14;;;;;;;9.55;3.42;;;;;;;13.84;95.35;101600.84;5015342;28;20486;-73
2021/10/15 02:17:40;;;;;;;13.38;4.07;;;;;;;14.00;94.37;101594.91;5014005;28;20030;-73
2021/10/15 02:20:08;;;;;;;14.75;3.25;;;;;;;14.10;93.70;101590.63;5015035;28;20029;-74
2021/10/15 02:22:33;;;;;;;10.48;3.33;;;;;;;14.22;92.04;101578.44;5014718;28;20030;-72
2021/10/15 02:24:59;;;;;;;14.45;3.03;;;;;;;14.31;91.57;101591.78;5015562;28;20046;-73
2021/10/15 02:27:25;;;;;;;9.43;2.70;;;;;;;14.33;91.46;101585.63;5014125;28;20049;-73
2021/10/15 02:29:50;;;;;;;9.07;2.95;;;;;;;14.39;90.61;101583.94;5015781;28;20034;-74
2021/10/15 02:32:15;;;;;;;12.57;2.92;;;;;;;14.40;90.46;101585.72;5015368;28;20045;-73
2021/10/15 02:34:41;;;;;;;8.82;2.60;;;;;;;14.41;90.45;101587.53;5013800;28;20064;-72
2021/10/15 02:37:06;;;;;;;14.82;3.30;;;;;;;14.40;89.72;101583.97;5012324;28;20554;-72
2021/10/15 02:39:31;;;;;;;11.80;3.00;;;;;;;14.45;89.30;101590.22;5011952;28;20096;-73
2021/10/15 02:41:57;;;;;;;12.05;3.13;;;;;;;14.45;89.36;101581.38;5015053;28;20362;-72
2021/10/15 02:44:22;;;;;;;9.27;3.13;;;;;;;14.46;89.23;101572.56;5014290;28;20045;-73
2021/10/15 02:46:47;;;;;;;11.40;3.28;;;;;;;14.46;89.48;101561.97;5015167;28;20055;-73
2021/10/15 02:49:13;;;;;;;10.40;3.10;;;;;;;14.46;88.91;101561.97;5009264;28;20079;-72
2021/10/15 02:51:38;;;;;;;10.77;2.90;;;;;;;14.44;88.91;101561.94;5014747;28;20030;-73
2021/10/15 02:54:04;;;;;;;13.10;3.30;;;;;;;14.42;88.42;101563.69;5016592;28;20026;-72
2021/10/15 02:56:30;;;;;;;10.40;2.95;;;;;;;14.42;88.67;101561.06;5013820;28;20033;-72
2021/10/15 02:58:56;;;;;;;11.23;3.38;;;;;;;14.43;88.37;101560.19;5005907;28;20030;-72
2021/10/15 03:01:21;;;;;;;10.32;2.90;;;;;;;14.43;88.60;101553.97;5013458;28;20026;-73
2021/10/15 03:03:48;;;;;;;8.23;3.30;;;;;;;14.45;88.10;101555.78;5014303;28;20038;-72
2021/10/15 03:06:15;;;;;;;11.05;3.00;;;;;;;14.46;87.93;101554.91;5012095;28;20489;-73
2021/10/15 03:08:40;;;;;;;11.25;2.92;;;;;;;14.47;87.62;101564.66;5014222;28;20474;-73
2021/10/15 03:11:05;;;;;;;14.55;3.47;;;;;;;14.50;87.66;101562.03;5015145;28;20021;-74
2021/10/15 03:13:31;;;;;;;15.52;2.85;;;;;;;14.52;87.84;101559.41;5011093;28;20052;-74
2021/10/15 03:15:56;;;;;;;10.57;3.10;;;;;;;14.49;88.24;101554.06;5013838;28;20045;-73
2021/10/15 03:18:22;;;;;;;11.10;3.17;;;;;;;14.49;88.04;101559.38;5011517;28;20030;-73
2021/10/15 03:20:48;;;;;;;13.35;3.50;;;;;;;14.49;88.24;101557.59;5013297;28;20417;-73
2021/10/15 03:23:13;;;;;;;8.48;3.05;;;;;;;14.48;88.41;101547.00;5014855;28;20066;-73
2021/10/15 03:25:38;;;;;;;12.60;2.80;;;;;;;14.48;88.19;101553.16;5016126;28;20049;-73
2021/10/15 03:28:05;;;;;;;12.90;3.10;;;;;;;14.51;88.01;101541.72;5012459;28;20034;-73
2021/10/15 03:30:30;;;;;;;8.85;2.67;;;;;;;14.48;88.06;101537.28;5012543;28;20520;-72
2021/10/15 03:32:56;;;;;;;15.93;3.30;;;;;;;14.45;88.03;101547.84;5013789;28;20029;-72
2021/10/15 03:35:21;;;;;;;14.57;3.42;;;;;;;14.40;87.03;101541.59;5013368;28;20037;-73
2021/10/15 03:37:47;;;;;;;14.88;3.53;;;;;;;14.42;85.58;101545.16;5013336;28;20377;-73
2021/10/15 03:40:13;;;;;;;11.88;2.72;;;;;;;14.44;85.80;101535.47;5012930;28;20025;-74
2021/10/15 03:42:38;;;;;;;9.82;2.90;;;;;;;14.44;85.63;101545.19;5011709;28;20022;-73
2021/10/15 03:45:05;;;;;;;10.80;2.90;;;;;;;14.43;85.73;101538.09;5012372;28;20117;-73
2021/10/15 03:47:31;;;;;;;7.88;2.80;;;;;;;14.41;85.57;101546.03;5011609;28;20044;-73
2021/10/15 03:49:57;;;;;;;14.52;3.20;;;;;;;14.41;86.15;101548.69;5010707;28;20069;-71
2021/10/15 03:52:22;;;;;;;12.93;3.05;;;;;;;14.43;86.35;101548.69;5015685;28;20113;-72
2021/10/15 03:54:47;;;;;;;14.85;3.47;;;;;;;14.46;85.78;101549.63;5014149;28;20064;-72
2021/10/15 03:57:13;;;;;;;13.63;3.10;;;;;;;14.42;86.06;101547.81;5011657;28;20030;-72
2021/10/15 03:59:38;;;;;;;14.40;3.85;;;;;;;14.41;86.40;101550.44;5012573;28;20507;-72
2021/10/15 04:02:04;;;;;;;14.30;3.90;;;;;;;14.41;86.07;101550.44;5012485;28;20040;-72
2021/10/15 04:04:29;;;;;;;14.25;3.22;;;;;;;14.42;85.90;101546.91;5010462;28;20030;-72
2021/10/15 04:06:55;;;;;;;15.32;3.63;;;;;;;14.44;85.38;101543.41;5011846;28;20028;-73
2021/10/15 04:09:21;;;;;;;18.17;4.45;;;;;;;14.43;85.71;101544.31;5013524;28;20022;-72
2021/10/15 04:11:46;;;;;;;11.18;3.08;;;;;;;14.42;86.03;101544.25;5013631;28;20033;-72
2021/10/15 04:14:12;;;;;;;13.07;4.63;;;;;;;14.39;86.58;101547.78;5013158;28;20080;-72
2021/10/15 04:16:37;;;;;;;14.68;3.10;;;;;;;14.40;86.55;101544.25;5012752;28;20045;-72
2021/10/15 04:19:03;;;;;;;15.77;3.28;;;;;;;14.39;86.51;101544.22;5011725;28;20479;-73
2021/10/15 04:21:28;;;;;;;15.55;3.90;;;;;;;14.36;86.73;101542.44;5012924;28;20079;-72
2021/10/15 04:23:54;;;;;;;15.43;3.25;;;;;;;14.35;87.07;101543.28;5013557;28;20131;-71
2021/10/15 04:26:19;;;;;;;17.38;3.35;;;;;;;14.36;86.78;101549.50;5013863;28;20157;-73
2021/10/15 04:28:44;;;;;;;21.23;3.55;;;;;;;14.37;86.21;101536.28;5011727;28;20050;-71
2021/10/15 04:31:10;;;;;;;9.05;3.22;;;;;;;14.36;86.33;101542.44;5012530;28;20124;-72
2021/10/15 04:33:35;;;;;;;12.88;3.00;;;;;;;14.37;86.47;101541.56;5012289;28;20040;-73
2021/10/15 04:36:01;;;;;;;12.15;3.00;;;;;;;14.35;86.82;101538.00;5010130;28;20108;-73
2021/10/15 04:38:26;;;;;;;13.60;2.75;;;;;;;14.33;86.87;101537.09;5012593;28;20117;-73
2021/10/15 04:40:51;;;;;;;10.15;3.33;;;;;;;14.31;86.88;101538.81;5013960;28;20025;-72
2021/10/15 04:43:16;;;;;;;9.93;3.05;;;;;;;14.29;86.80;101535.28;5012656;28;20041;-74
2021/10/15 04:45:42;;;;;;;12.20;3.53;;;;;;;14.32;86.48;101540.63;5009493;28;20453;-73
2021/10/15 04:48:07;;;;;;;14.02;4.00;;;;;;;14.29;86.93;101536.16;5012305;28;20034;-73
2021/10/15 04:50:36;;;;;;;14.98;3.42;;;;;;;14.28;86.82;101536.16;5013776;28;20038;-71
2021/10/15 04:53:03;;;;;;;12.73;3.10;;;;;;;14.30;86.70;101532.66;5014230;28;20029;-72
2021/10/15 04:55:29;;;;;;;11.45;3.30;;;;;;;14.28;86.95;101545.00;5013283;28;20064;-72
2021/10/15 04:57:57;;;;;;;13.35;3.55;;;;;;;14.30;86.87;101542.38;5012537;28;20057;-73
2021/10/15 05:00:24;;;;;;;16.90;3.70;;;;;;;14.29;87.14;101540.59;5012527;28;20022;-73
2021/10/15 05:02:51;;;;;;;14.00;3.15;;;;;;;14.30;86.96;101537.09;5011451;28;20088;-72
2021/10/15 05:05:20;;;;;;;7.43;2.97;;;;;;;14.30;86.88;101537.09;5012572;28;20088;-72
2021/10/15 05:07:46;;;;;;;13.50;3.97;;;;;;;14.28;86.98;101533.50;5012398;28;20034;-73
2021/10/15 05:10:11;;;;;;;9.77;3.33;;;;;;;14.31;87.08;101528.25;5012022;28;20080;-74
2021/10/15 05:12:36;;;;;;;14.55;3.90;;;;;;;14.29;87.36;101532.66;5012267;28;20478;-73
2021/10/15 05:15:03;;;;;;;10.55;2.85;;;;;;;14.29;87.75;101540.59;5012032;28;20041;-72
2021/10/15 05:17:29;;;;;;;17.10;3.83;;;;;;;14.27;87.50;101532.63;5011446;28;20532;-73
2021/10/15 05:19:54;;;;;;;13.25;3.55;;;;;;;14.24;87.43;101532.56;5011715;28;20363;-72
2021/10/15 05:22:19;;;;;;;11.88;3.60;;;;;;;14.25;87.88;101534.34;5010324;28;20029;-71
2021/10/15 05:24:45;;;;;;;13.77;3.42;;;;;;;14.22;87.92;101547.56;5011886;28;20046;-72
2021/10/15 05:27:10;;;;;;;12.98;3.72;;;;;;;14.18;89.93;101558.97;5011916;28;20038;-73
2021/10/15 05:29:35;;;;;;;12.77;3.50;;;;;;;13.98;94.76;101558.69;5010252;28;20030;-71
2021/10/15 05:32:01;;;;;;;9.55;3.45;;;;;;;13.57;99.20;101580.16;5009461;28;20029;-71
2021/10/15 05:34:26;;;;;;;15.60;3.80;;;;;;;13.33;100.00;101578.81;5011132;28;20478;-69
2021/10/15 05:36:51;;;;;;;12.93;3.13;;;;;;;13.19;100.00;101568.03;5011737;28;20030;-70
2021/10/15 05:39:16;;;;;;;13.13;3.85;;;;;;;13.11;100.00;101581.09;5010289;28;20040;-70
2021/10/15 05:41:42;;;;;;;13.55;3.63;;;;;;;12.99;100.00;101572.94;5013639;28;20087;-70
2021/10/15 05:44:08;;;;;;;16.05;3.92;;;;;;;12.92;100.00;101584.28;5012561;28;20495;-67
2021/10/15 05:46:33;;;;;;;13.60;3.85;;;;;;;12.81;100.00;101576.13;5013801;28;20461;-68
2021/10/15 05:48:59;;;;;;;11.15;4.07;;;;;;;12.76;100.00;101570.75;5015921;28;20030;-69
2021/10/15 05:51:26;;;;;;;15.48;4.57;;;;;;;12.76;100.00;101572.50;5014778;28;20030;-69
2021/10/15 05:53:55;;;;;;;12.82;4.35;;;;;;;12.75;100.00;101578.66;5016959;28;20311;-69
2021/10/15 05:59:04;;;;;;;12.77;5.00;;;;;;;12.71;100.00;101584.72;5016164;28;20041;-69
2021/10/15 06:01:30;;;;;;;17.77;5.13;;;;;;;12.73;100.00;101615.59;5013018;28;20038;-72
2021/10/15 06:14:48;;;;;;;5.13;1.20;;;;;;;12.24;100.00;101619.84;5002180;28;20049;-72
2021/10/15 06:17:17;;;;;;;2.50;0.77;;;;;;;12.16;100.00;101621.44;5020366;28;20478;-73
2021/10/15 06:20:04;;;;;;;3.90;0.98;;;;;;;12.07;100.00;101630.91;5014674;28;20481;-73
2021/10/15 06:22:29;;;;;;;6.50;0.90;;;;;;;12.03;100.00;101633.44;5015653;28;20034;-72
2021/10/15 06:24:55;;;;;;;8.82;0.80;;;;;;;12.00;100.00;101641.28;5013860;28;20104;-71
2021/10/15 06:27:22;;;;;;;6.78;0.80;;;;;;;11.99;100.00;101645.66;5015655;28;20048;-71
2021/10/15 06:29:48;;;;;;;4.90;0.90;;;;;;;11.98;100.00;101657.06;5014839;28;20033;-72
2021/10/15 06:32:17;;;;;;;4.10;0.70;;;;;;;11.93;100.00;101656.03;5012374;28;20374;-73
2021/10/15 06:34:43;;;;;;;5.35;1.05;;;;;;;11.90;100.00;101661.25;5027463;28;20489;-73
2021/10/15 06:37:08;;;;;;;6.40;0.98;;;;;;;11.89;100.00;101672.66;5019879;28;20033;-73
2021/10/15 06:39:33;;;;;;;10.80;1.25;;;;;;;11.84;100.00;101674.28;5012804;28;20095;-73
2021/10/15 06:41:59;;;;;;;4.05;1.05;;;;;;;11.78;100.00;101689.06;5013607;28;20124;-72
2021/10/15 06:44:24;;;;;;;8.90;1.30;;;;;;;11.73;100.00;101685.44;5015138;28;20032;-73
2021/10/15 06:46:49;;;;;;;6.38;1.10;;;;;;;11.69;100.00;101701.13;5029577;28;20056;-72
2021/10/15 06:49:15;;;;;;;11.07;1.13;;;;;;;11.61;100.00;101708.84;5015113;28;20390;-72
2021/10/15 06:51:40;;;;;;;10.07;1.00;;;;;;;11.59;100.00;101705.28;5013655;28;20030;-72
2021/10/15 06:54:05;;;;;;;14.85;1.20;;;;;;;11.55;100.00;101712.22;5016710;28;20088;-72
2021/10/15 06:56:31;;;;;;;8.40;1.10;;;;;;;11.53;100.00;101708.66;5014368;28;20026;-73
2021/10/15 06:58:56;;;;;;;14.43;2.88;;;;;;;11.50;100.00;101712.94;5015904;28;20575;-71
2021/10/15 07:01:22;;;;;;;8.35;1.40;;;;;;;11.50;100.00;101723.50;5022671;28;20025;-71
2021/10/15 07:03:47;;;;;;;8.95;2.10;;;;;;;11.49;100.00;101727.88;5016274;28;20393;-72
2021/10/15 07:06:12;;;;;;;10.95;1.83;;;;;;;11.47;100.00;101725.19;5018921;28;20029;-71
2021/10/15 07:08:38;;;;;;;17.05;1.75;;;;;;;11.47;100.00;101740.09;5005682;28;20465;-71
2021/10/15 07:11:04;;;;;;;14.63;2.00;;;;;;;11.46;100.00;101733.97;5021455;28;20022;-69
2021/10/15 07:13:31;;;;;;;23.05;2.00;;;;;;;11.46;100.00;101736.59;5015026;28;20038;-70
2021/10/15 07:16:06;;;;;;;16.48;1.85;;;;;;;11.45;100.00;101740.06;5016196;28;20243;-70
2021/10/15 07:18:34;;;;;;;17.27;1.55;;;;;;;11.45;100.00;101732.16;5001109;28;20109;-70
2021/10/15 07:20:59;;;;;;;8.13;1.63;;;;;;;11.46;100.00;101744.50;5022138;28;20022;-70
2021/10/15 07:23:25;;;;;;;12.57;1.70;;;;;;;11.45;100.00;101757.66;5035819;28;20053;-70
2021/10/15 07:25:50;;;;;;;15.98;1.80;;;;;;;11.46;100.00;101741.88;5012498;28;20429;-71
2021/10/15 07:28:18;;;;;;;12.88;2.88;;;;;;;11.48;100.00;101758.59;5018006;28;20026;-71
2021/10/15 07:30:47;;;;;;;11.98;2.08;;;;;;;11.50;100.00;101760.38;5017074;28;20121;-71
2021/10/15 07:33:12;;;;;;;15.32;1.70;;;;;;;11.48;100.00;101763.00;5015852;28;20095;-71
2021/10/15 07:35:37;;;;;;;19.40;2.65;;;;;;;11.50;100.00;101769.19;5015552;28;20029;-71
2021/10/15 07:38:03;;;;;;;17.55;2.25;;;;;;;11.48;100.00;101760.34;5017952;28;20025;-71
2021/10/15 07:40:28;;;;;;;17.83;1.63;;;;;;;11.48;100.00;101770.91;5018116;28;20457;-71
2021/10/15 07:42:54;;;;;;;10.52;1.75;;;;;;;11.51;100.00;101780.63;5012913;28;20390;-71
2021/10/15 07:45:20;;;;;;;13.85;1.95;;;;;;;11.52;100.00;101782.44;5015304;28;20024;-74
2021/10/15 07:47:45;;;;;;;19.25;2.28;;;;;;;11.50;100.00;101789.38;5012164;28;20034;-74
2021/10/15 07:50:11;;;;;;;6.75;1.10;;;;;;;11.50;100.00;101786.75;5012113;28;20032;-73
2021/10/15 07:52:40;;;;;;;14.35;1.83;;;;;;;11.49;100.00;101796.41;5019037;28;20029;-74
2021/10/15 07:55:06;;;;;;;11.52;1.55;;;;;;;11.52;100.00;101799.13;5014597;28;20033;-72
2021/10/15 07:57:31;;;;;;;10.95;1.70;;;;;;;11.53;100.00;101803.56;5025892;28;20029;-72
2021/10/15 07:59:57;;;;;;;11.38;1.90;;;;;;;11.62;100.00;101805.53;5014734;28;20025;-73
2021/10/15 08:02:24;;;;;;;18.35;2.33;;;;;;;11.63;100.00;101810.84;5020491;28;20029;-72
2021/10/15 08:04:50;;;;;;;19.23;2.75;;;;;;;11.71;100.00;101813.72;5014662;28;20056;-72
2021/10/15 08:07:15;;;;;;;14.65;1.70;;;;;;;11.77;100.00;101815.63;5014877;28;20478;-72
2021/10/15 08:09:41;;;;;;;22.73;1.88;;;;;;;11.86;100.00;101822.91;5018586;28;20081;-72
2021/10/15 08:12:06;;;;;;;18.00;1.55;;;;;;;11.90;100.00;101816.84;5010471;28;20033;-70
2021/10/15 08:14:32;;;;;;;17.67;1.85;;;;;;;11.94;100.00;101824.00;5012315;28;20540;-69
2021/10/15 08:16:57;;;;;;;14.80;1.38;;;;;;;11.96;100.00;101820.59;5014317;28;20048;-70
2021/10/15 08:19:22;;;;;;;15.50;1.85;;;;;;;12.06;100.00;101831.34;5011818;28;20057;-70
2021/10/15 08:21:48;;;;;;;13.10;1.52;;;;;;;12.11;100.00;101835.91;5019123;28;20103;-69
2021/10/15 08:24:14;;;;;;;16.98;1.48;;;;;;;12.12;100.00;101840.31;5012425;28;20058;-70
2021/10/15 08:26:41;;;;;;;14.10;2.63;;;;;;;12.20;100.00;101840.53;5016554;28;20036;-70
2021/10/15 08:29:06;;;;;;;9.45;2.10;;;;;;;12.27;100.00;101852.13;5014484;28;20036;-70
2021/10/15 08:31:31;;;;;;;11.68;2.20;;;;;;;12.31;100.00;101848.72;5013450;28;20030;-69
2021/10/15 08:33:57;;;;;;;13.40;1.35;;;;;;;12.35;100.00;101853.22;5012804;28;20033;-71
2021/10/15 08:36:23;;;;;;;12.20;2.40;;;;;;;12.38;100.00;101855.06;5017502;28;20025;-71
2021/10/15 08:38:52;;;;;;;15.32;1.73;;;;;;;12.40;100.00;101858.59;5016617;28;20458;-71
2021/10/15 08:41:20;;;;;;;14.63;2.03;;;;;;;12.40;100.00;101867.44;5013051;28;20080;-71
2021/10/15 08:43:45;;;;;;;19.65;1.83;;;;;;;12.44;100.00;101861.38;5012856;28;20034;-71
2021/10/15 08:46:11;;;;;;;16.40;2.05;;;;;;;12.45;100.00;101855.25;5029675;28;20683;-71
2021/10/15 08:48:38;;;;;;;16.27;2.17;;;;;;;12.54;100.00;101873.06;5015617;28;20033;-71
2021/10/15 08:51:04;;;;;;;20.73;2.67;;;;;;;12.58;100.00;101869.63;5010995;28;20057;-71
2021/10/15 08:53:30;;;;;;;15.35;2.08;;;;;;;12.62;99.02;101875.91;5016294;28;20502;-72
2021/10/15 08:55:55;;;;;;;14.27;1.70;;;;;;;12.59;96.12;101865.28;5012706;28;20498;-71
2021/10/15 08:58:48;;;;;;;17.23;1.95;;;;;;;12.62;89.89;101860.06;5021793;28;20053;-72
2021/10/15 09:01:15;;;;;;;23.02;1.88;;;;;;;12.64;90.86;101875.09;5021715;28;20406;-73
2021/10/15 09:03:41;;;;;;;11.88;1.67;;;;;;;12.58;90.43;101879.31;5012929;28;20030;-72
2021/10/15 09:06:08;;;;;;;10.23;1.63;;;;;;;12.41;87.60;101877.16;5014134;28;20121;-72
2021/10/15 09:08:55;;;;;;;8.07;1.20;;;;;;;12.62;89.14;101886.47;5016544;28;20477;-73
2021/10/15 09:11:40;;;;;;;10.95;1.73;;;;;;;13.01;88.78;101885.66;5002039;28;20113;-72
2021/10/15 09:14:16;;;;;;;9.50;1.70;;;;;;;13.54;87.69;101886.81;5015255;28;20034;-72
2021/10/15 09:17:12;;;;;;;7.70;1.60;;;;;;;14.07;83.05;101878.19;5018282;28;20141;-72
2021/10/15 09:19:50;;;;;;;10.45;1.30;;;;;;;14.54;76.63;101861.34;5034660;28;20034;-71
2021/10/15 09:22:34;;;;;;;8.57;1.35;;;;;;;14.99;75.67;101868.28;5024497;28;20378;-72
2021/10/15 09:25:05;;;;;;;8.80;1.75;;;;;;;15.28;73.34;101873.09;5022769;28;20498;-71
2021/10/15 09:27:45;;;;;;;6.22;1.30;;;;;;;15.48;73.71;101868.06;5025277;28;20064;-71
2021/10/15 09:30:19;;;;;;;3.33;0.75;;;;;;;15.64;69.26;101859.41;5016740;28;20469;-72
2021/10/15 09:32:46;;;;;;;11.77;1.42;;;;;;;15.83;70.10;101871.16;5016838;28;20052;-72
2021/10/15 09:35:18;;;;;;;9.65;1.45;;;;;;;16.03;66.95;101865.16;5022781;28;20802;-72
2021/10/15 09:37:46;;;;;;;8.90;1.25;;;;;;;16.03;69.02;101878.44;5017419;28;20108;-72
2021/10/15 09:40:18;;;;;;;9.82;1.55;;;;;;;16.02;69.28;101882.00;5020437;28;20018;-71
2021/10/15 09:42:47;;;;;;;11.33;1.70;;;;;;;16.07;68.02;101874.06;5022639;28;20094;-72
2021/10/15 09:45:21;;;;;;;6.18;1.42;;;;;;;16.15;69.17;101891.84;5018497;28;20045;-76
2021/10/15 09:47:49;;;;;;;9.73;1.60;;;;;;;16.40;69.73;101884.13;5007127;28;20021;-74
2021/10/15 09:50:17;;;;;;;9.48;1.33;;;;;;;16.56;64.30;101876.28;5015710;28;20033;-73
2021/10/15 09:52:46;;;;;;;10.32;1.55;;;;;;;16.76;67.44;101893.28;5018916;28;20496;-73
2021/10/15 09:55:15;;;;;;;9.68;1.48;;;;;;;17.00;62.26;101879.31;5026072;28;20037;-70
2021/10/15 09:57:44;;;;;;;8.30;2.05;;;;;;;17.33;61.76;101883.03;5022190;28;20079;-69
2021/10/15 10:00:12;;;;;;;7.72;1.27;;;;;;;17.41;62.12;101883.09;5015547;28;20018;-70
2021/10/15 10:02:38;;;;;;;11.32;1.60;;;;;;;17.35;60.31;101888.41;5023556;28;20029;-69
2021/10/15 10:05:07;;;;;;;8.25;1.20;;;;;;;16.97;58.67;101889.03;5015020;28;20028;-70
2021/10/15 10:07:35;;;;;;;9.70;1.77;;;;;;;16.74;63.36;101916.31;5013864;28;20045;-71
2021/10/15 10:10:01;;;;;;;9.88;2.15;;;;;;;16.73;63.32;101911.88;5015496;28;20028;-69
2021/10/15 10:12:27;;;;;;;12.75;1.67;;;;;;;16.93;64.72;101920.03;5022068;28;20041;-69
2021/10/15 10:14:53;;;;;;;7.25;1.23;;;;;;;17.09;62.14;101902.44;5016649;28;20022;-70
2021/10/15 10:17:23;;;;;;;10.00;1.58;;;;;;;17.25;61.71;101907.81;5016335;28;20489;-71
2021/10/15 10:19:52;;;;;;;11.40;1.50;;;;;;;17.15;62.10;101907.78;5026464;28;20037;-69
2021/10/15 10:22:19;;;;;;;12.82;1.33;;;;;;;17.18;63.94;101915.75;5016755;28;20045;-71
2021/10/15 10:24:51;;;;;;;7.22;1.42;;;;;;;17.25;60.13;101908.72;5007152;28;20129;-68
2021/10/15 10:27:32;;;;;;;9.98;1.33;;;;;;;17.47;60.30;101914.16;5008196;28;20512;-72
2021/10/15 10:29:59;;;;;;;7.32;1.30;;;;;;;17.56;60.86;101908.00;5030586;28;20056;-70
2021/10/15 10:32:26;;;;;;;16.20;1.80;;;;;;;17.97;61.81;101923.25;5013047;28;20038;-70
2021/10/15 10:34:53;;;;;;;6.85;1.95;;;;;;;17.99;59.46;101922.38;5014988;28;20398;-70
2021/10/15 10:37:19;;;;;;;10.57;1.58;;;;;;;17.43;63.20;101929.22;5014082;28;20033;-75
2021/10/15 10:39:47;;;;;;;15.48;1.67;;;;;;;16.82;62.15;101930.56;5016139;28;20164;-74
2021/10/15 10:42:15;;;;;;;10.32;1.70;;;;;;;16.44;63.55;101944.38;5025103;28;20516;-74
2021/10/15 10:45:00;;;;;;;10.35;1.95;;;;;;;16.92;63.13;101949.28;5014135;28;20045;-75
2021/10/15 10:47:27;;;;;;;7.22;1.42;;;;;;;17.36;64.43;101938.03;5018975;28;20040;-74
2021/10/15 10:50:02;;;;;;;13.25;1.85;;;;;;;17.84;58.26;101931.19;5000143;28;20025;-75
2021/10/15 10:52:29;;;;;;;10.95;1.70;;;;;;;18.46;57.36;101941.13;5020569;28;20037;-75
2021/10/15 10:54:54;;;;;;;9.68;1.83;;;;;;;19.02;54.65;101932.28;5030319;28;20049;-75
2021/10/15 10:57:22;;;;;;;14.07;2.33;;;;;;;19.49;53.35;101933.09;5017668;28;20500;-77
2021/10/15 10:59:51;;;;;;;10.18;2.55;;;;;;;19.88;54.72;101938.31;5016851;28;20037;-75
2021/10/15 11:02:19;;;;;;;8.27;1.40;;;;;;;20.30;49.86;101928.28;5016511;28;20053;-75
2021/10/15 11:04:45;;;;;;;9.15;2.00;;;;;;;20.69;52.33;101938.75;5020594;28;20378;-77
2021/10/15 11:07:16;;;;;;;8.88;1.98;;;;;;;20.63;48.41;101936.97;5018358;28;20043;-75
2021/10/15 11:09:48;;;;;;;11.02;1.80;;;;;;;20.79;45.16;101926.16;5010962;28;20030;-77
2021/10/15 11:12:28;;;;;;;14.35;2.03;;;;;;;20.15;49.34;101950.63;5009171;28;20037;-77
2021/10/15 11:15:06;;;;;;;10.32;1.60;;;;;;;19.19;49.09;101945.63;5009208;28;20033;-77
2021/10/15 11:17:41;;;;;;;12.88;2.47;;;;;;;19.16;51.65;101950.94;5007463;28;20663;-77
2021/10/15 11:20:07;;;;;;;11.50;1.77;;;;;;;19.43;51.79;101959.78;5005892;28;20022;-74
2021/10/15 11:22:33;;;;;;;9.65;2.90;;;;;;;19.63;53.63;101967.75;5015408;28;20034;-74
2021/10/15 11:25:00;;;;;;;14.75;2.25;;;;;;;19.30;52.09;101966.06;5013410;28;20053;-71
2021/10/15 11:27:25;;;;;;;11.52;1.80;;;;;;;19.32;51.64;101966.94;5022419;28;20035;-73
2021/10/15 11:29:57;;;;;;;8.98;1.80;;;;;;;19.06;52.53;101981.22;5015104;28;20385;-75